Meath Environmental Platform

Observations for Trim Patrick St

Time AQI Temp °C Hum % Pres Pa CO μg/m³ H₂S μg/m³ NO μg/m³ NO₂ μg/m³ O₃ μg/m³ SO₂ μg/m³ PM1 μg/m³ PM2.5 μg/m³ PM10 μg/m³
Friday 31 July 2026
23:02 3 15.3 64 74,412 0.11 6.35 2.19 21.18 50.43 0 3.71 7.73 8.5
23:01 3 15.3 64 74,388 0.1 6.45 2.71 22.52 49.97 0 2 6.27 6.9
23:00 2 15.4 64 74,363 0.1 6.38 2.55 23.87 48.66 0 2 6.27 6.9
22:59 2 15.4 64 74,346 0.11 7.16 2.84 29.28 46.13 0 2 6.28 6.91
22:58 3 15.4 64 74,322 0.1 6.04 2.87 31.93 36.3 0 2.86 7.02 7.73
22:57 3 15.4 63 74,310 0.09 6.98 2.78 28.26 43.12 0 2 5.59 6.15
22:56 3 15.4 63 74,292 0.1 6.82 2.26 25.1 49.56 0 2.86 7.05 7.76
22:55 3 15.4 63 74,271 0.09 6.45 2.54 22.69 49.09 0 2 6.33 6.96
22:54 2 15.4 63 74,259 0.09 6.48 2.07 20.89 49.18 0 2 6.32 6.95
22:53 3 15.5 63 74,245 0.09 6.09 1.82 28.11 44.4 0 2 6.34 6.98
22:52 3 15.5 63 74,231 0.08 5.6 2.29 18.12 49.26 0 2 6.32 6.95
22:51 3 15.5 63 74,221 0.09 5.99 2.43 34.79 34.28 0 2 6.32 6.95
22:50 3 15.5 63 74,206 0.08 6.92 2.14 21.71 53.12 0 2 6.32 6.95
22:49 3 15.5 63 74,196 0.07 6.48 2.13 22.66 49.23 0 2 6.32 6.95
22:48 3 15.5 63 74,182 0.08 6.79 2.13 15.87 50.77 0 2.86 7.07 7.78
22:47 3 15.6 63 74,172 0.07 6.66 1.93 28.96 50.89 0 3.71 7.8 8.58
22:46 3 15.6 63 74,159 0.07 6.48 2.02 18.78 49.78 0 2 6.35 6.98
22:45 3 15.6 63 74,149 0.07 7.16 1.83 24.81 52.18 0 2 6.35 6.98
22:44 3 15.6 62 74,141 0.06 6.25 1.91 17.85 51.05 0 2 6.36 7
22:43 3 15.6 62 74,127 0.06 6.66 2.05 21.25 48.39 0 2 7.15 7.87